sensor_id;sensor_type;location;lat;lon;timestamp;pressure;altitude;pressure_sealevel;temperature;humidity
7200;BME280;3641;49.082;8.200;2023-05-12T00:01:12;100106.97;;;12.19;90.75
7200;BME280;3641;49.082;8.200;2023-05-12T00:03:39;100107.47;;;12.01;97.03
7200;BME280;3641;49.082;8.200;2023-05-12T00:06:06;100100.59;;;12.12;92.66
7200;BME280;3641;49.082;8.200;2023-05-12T00:08:34;100097.94;;;12.25;89.37
7200;BME280;3641;49.082;8.200;2023-05-12T00:11:00;100097.31;;;12.23;90.34
7200;BME280;3641;49.082;8.200;2023-05-12T00:13:27;100101.25;;;12.14;95.71
7200;BME280;3641;49.082;8.200;2023-05-12T00:15:53;100107.44;;;11.94;98.15
7200;BME280;3641;49.082;8.200;2023-05-12T00:18:22;100106.50;;;12.15;91.97
7200;BME280;3641;49.082;8.200;2023-05-12T00:20:49;100101.97;;;12.29;91.29
7200;BME280;3641;49.082;8.200;2023-05-12T00:23:18;100095.41;;;11.89;98.00
7200;BME280;3641;49.082;8.200;2023-05-12T00:25:46;100101.19;;;11.79;98.83
7200;BME280;3641;49.082;8.200;2023-05-12T00:28:12;100095.09;;;11.77;98.08
7200;BME280;3641;49.082;8.200;2023-05-12T00:30:38;100091.09;;;11.73;99.65
7200;BME280;3641;49.082;8.200;2023-05-12T00:33:05;100096.28;;;11.68;98.46
7200;BME280;3641;49.082;8.200;2023-05-12T00:35:31;100091.94;;;11.52;100.00
7200;BME280;3641;49.082;8.200;2023-05-12T00:37:58;100087.84;;;11.62;100.00
7200;BME280;3641;49.082;8.200;2023-05-12T00:40:24;100090.72;;;11.82;95.69
7200;BME280;3641;49.082;8.200;2023-05-12T00:42:52;100079.09;;;11.74;98.70
7200;BME280;3641;49.082;8.200;2023-05-12T00:45:19;100082.13;;;11.86;97.26
7200;BME280;3641;49.082;8.200;2023-05-12T00:47:46;100081.25;;;11.85;95.28
7200;BME280;3641;49.082;8.200;2023-05-12T00:50:13;100081.59;;;11.97;96.04
7200;BME280;3641;49.082;8.200;2023-05-12T00:52:40;100080.16;;;11.73;100.00
7200;BME280;3641;49.082;8.200;2023-05-12T00:55:08;100081.22;;;11.78;99.10
7200;BME280;3641;49.082;8.200;2023-05-12T00:57:35;100074.53;;;11.81;99.61
7200;BME280;3641;49.082;8.200;2023-05-12T01:00:04;100067.13;;;12.03;93.37
7200;BME280;3641;49.082;8.200;2023-05-12T01:02:31;100070.28;;;12.07;93.39
7200;BME280;3641;49.082;8.200;2023-05-12T01:04:57;100074.56;;;11.88;96.86
7200;BME280;3641;49.082;8.200;2023-05-12T01:07:24;100062.28;;;12.05;91.84
7200;BME280;3641;49.082;8.200;2023-05-12T01:09:53;100064.88;;;12.20;90.24
7200;BME280;3641;49.082;8.200;2023-05-12T01:12:20;100070.13;;;12.15;94.26
7200;BME280;3641;49.082;8.200;2023-05-12T01:14:47;100059.81;;;12.24;90.26
7200;BME280;3641;49.082;8.200;2023-05-12T01:17:18;100066.50;;;12.08;94.95
7200;BME280;3641;49.082;8.200;2023-05-12T01:19:47;100066.78;;;12.20;92.52
7200;BME280;3641;49.082;8.200;2023-05-12T01:22:15;100061.44;;;12.05;92.75
7200;BME280;3641;49.082;8.200;2023-05-12T01:24:45;100061.50;;;12.18;91.41
7200;BME280;3641;49.082;8.200;2023-05-12T01:27:15;100063.63;;;12.23;91.44
7200;BME280;3641;49.082;8.200;2023-05-12T01:29:44;100062.13;;;12.20;92.32
7200;BME280;3641;49.082;8.200;2023-05-12T01:32:11;100066.78;;;12.20;91.60
7200;BME280;3641;49.082;8.200;2023-05-12T01:34:38;100067.88;;;12.32;89.56
7200;BME280;3641;49.082;8.200;2023-05-12T01:37:06;100060.66;;;12.17;95.35
7200;BME280;3641;49.082;8.200;2023-05-12T01:39:33;100066.34;;;12.16;92.49
7200;BME280;3641;49.082;8.200;2023-05-12T01:41:59;100068.88;;;12.17;94.95
7200;BME280;3641;49.082;8.200;2023-05-12T01:44:27;100063.69;;;12.36;89.65
7200;BME280;3641;49.082;8.200;2023-05-12T01:46:53;100066.59;;;12.28;92.01
7200;BME280;3641;49.082;8.200;2023-05-12T01:49:20;100068.28;;;12.22;91.04
7200;BME280;3641;49.082;8.200;2023-05-12T01:51:47;100069.09;;;12.23;89.99
7200;BME280;3641;49.082;8.200;2023-05-12T01:54:13;100076.41;;;12.15;92.22
7200;BME280;3641;49.082;8.200;2023-05-12T01:56:40;100062.56;;;12.24;90.95
7200;BME280;3641;49.082;8.200;2023-05-12T01:59:07;100067.69;;;12.33;88.40
7200;BME280;3641;49.082;8.200;2023-05-12T02:01:34;100059.78;;;12.10;93.04
7200;BME280;3641;49.082;8.200;2023-05-12T02:04:01;100071.41;;;12.19;90.78
7200;BME280;3641;49.082;8.200;2023-05-12T02:06:28;100074.53;;;12.16;90.08
7200;BME280;3641;49.082;8.200;2023-05-12T02:08:54;100075.19;;;12.18;90.89
7200;BME280;3641;49.082;8.200;2023-05-12T02:11:21;100070.78;;;12.24;90.05
7200;BME280;3641;49.082;8.200;2023-05-12T02:13:47;100073.59;;;11.95;94.04
7200;BME280;3641;49.082;8.200;2023-05-12T02:16:14;100069.78;;;11.96;92.38
7200;BME280;3641;49.082;8.200;2023-05-12T02:18:41;100075.13;;;11.76;95.25
7200;BME280;3641;49.082;8.200;2023-05-12T02:21:08;100075.19;;;11.90;92.37
7200;BME280;3641;49.082;8.200;2023-05-12T02:23:35;100070.78;;;11.89;92.96
7200;BME280;3641;49.082;8.200;2023-05-12T02:26:01;100071.78;;;11.81;94.72
7200;BME280;3641;49.082;8.200;2023-05-12T02:28:28;100071.94;;;11.44;99.65
7200;BME280;3641;49.082;8.200;2023-05-12T02:30:54;100070.75;;;11.54;98.41
7200;BME280;3641;49.082;8.200;2023-05-12T02:33:21;100067.88;;;11.62;95.55
7200;BME280;3641;49.082;8.200;2023-05-12T02:35:49;100073.19;;;11.70;93.32
7200;BME280;3641;49.082;8.200;2023-05-12T02:38:16;100070.34;;;11.57;95.74
7200;BME280;3641;49.082;8.200;2023-05-12T02:40:43;100070.09;;;11.80;93.07
7200;BME280;3641;49.082;8.200;2023-05-12T02:43:09;100076.78;;;11.77;96.55
7200;BME280;3641;49.082;8.200;2023-05-12T02:45:36;100067.38;;;11.87;91.62
7200;BME280;3641;49.082;8.200;2023-05-12T02:48:03;100066.16;;;11.61;96.72
7200;BME280;3641;49.082;8.200;2023-05-12T02:50:29;100069.44;;;11.78;92.91
7200;BME280;3641;49.082;8.200;2023-05-12T02:52:57;100064.41;;;11.81;93.22
7200;BME280;3641;49.082;8.200;2023-05-12T02:55:24;100066.97;;;11.55;98.20
7200;BME280;3641;49.082;8.200;2023-05-12T02:57:50;100061.53;;;11.61;95.20
7200;BME280;3641;49.082;8.200;2023-05-12T03:00:17;100060.06;;;11.59;96.81
7200;BME280;3641;49.082;8.200;2023-05-12T03:02:43;100059.69;;;11.69;94.67
7200;BME280;3641;49.082;8.200;2023-05-12T03:05:10;100055.78;;;11.50;96.94
7200;BME280;3641;49.082;8.200;2023-05-12T03:07:36;100049.81;;;11.68;94.97
7200;BME280;3641;49.082;8.200;2023-05-12T03:10:06;100056.59;;;11.78;92.80
7200;BME280;3641;49.082;8.200;2023-05-12T03:12:33;100063.06;;;11.71;96.62
7200;BME280;3641;49.082;8.200;2023-05-12T03:15:00;100064.38;;;11.75;93.45
7200;BME280;3641;49.082;8.200;2023-05-12T03:17:28;100064.50;;;11.60;99.33
7200;BME280;3641;49.082;8.200;2023-05-12T03:19:55;100063.03;;;11.64;97.76
7200;BME280;3641;49.082;8.200;2023-05-12T03:22:21;100065.66;;;11.79;94.14
7200;BME280;3641;49.082;8.200;2023-05-12T03:24:48;100066.13;;;11.82;94.74
7200;BME280;3641;49.082;8.200;2023-05-12T03:27:16;100068.88;;;11.89;92.68
7200;BME280;3641;49.082;8.200;2023-05-12T03:29:42;100073.53;;;11.89;94.45
7200;BME280;3641;49.082;8.200;2023-05-12T03:32:08;100062.72;;;11.80;95.70
7200;BME280;3641;49.082;8.200;2023-05-12T03:34:35;100066.22;;;11.96;91.47
7200;BME280;3641;49.082;8.200;2023-05-12T03:37:01;100063.59;;;11.81;94.25
7200;BME280;3641;49.082;8.200;2023-05-12T03:39:28;100073.00;;;12.00;91.94
7200;BME280;3641;49.082;8.200;2023-05-12T03:41:54;100067.25;;;11.95;93.49
7200;BME280;3641;49.082;8.200;2023-05-12T03:44:22;100066.16;;;11.89;95.65
7200;BME280;3641;49.082;8.200;2023-05-12T03:46:49;100069.16;;;11.94;94.35
7200;BME280;3641;49.082;8.200;2023-05-12T03:49:15;100057.41;;;12.01;91.97
7200;BME280;3641;49.082;8.200;2023-05-12T03:51:42;100059.13;;;11.80;96.59
7200;BME280;3641;49.082;8.200;2023-05-12T03:54:08;100067.50;;;11.72;96.68
7200;BME280;3641;49.082;8.200;2023-05-12T03:56:35;100054.28;;;11.75;96.95
7200;BME280;3641;49.082;8.200;2023-05-12T03:59:01;100060.44;;;11.84;94.02
7200;BME280;3641;49.082;8.200;2023-05-12T04:01:29;100063.69;;;11.94;93.89
7200;BME280;3641;49.082;8.200;2023-05-12T04:03:56;100060.03;;;11.87;95.55
7200;BME280;3641;49.082;8.200;2023-05-12T04:06:22;100059.47;;;11.92;92.93
7200;BME280;3641;49.082;8.200;2023-05-12T04:08:48;100057.00;;;11.75;97.24
7200;BME280;3641;49.082;8.200;2023-05-12T04:11:15;100060.66;;;11.82;94.47
7200;BME280;3641;49.082;8.200;2023-05-12T04:13:42;100055.91;;;11.98;92.24
7200;BME280;3641;49.082;8.200;2023-05-12T04:16:08;100060.97;;;12.01;93.64
7200;BME280;3641;49.082;8.200;2023-05-12T04:18:36;100062.13;;;11.85;96.26
7200;BME280;3641;49.082;8.200;2023-05-12T04:21:03;100060.25;;;11.86;95.38
7200;BME280;3641;49.082;8.200;2023-05-12T04:23:30;100060.53;;;11.97;94.08
7200;BME280;3641;49.082;8.200;2023-05-12T04:25:56;100055.91;;;11.98;97.28
7200;BME280;3641;49.082;8.200;2023-05-12T04:28:23;100057.09;;;11.89;96.83
7200;BME280;3641;49.082;8.200;2023-05-12T04:30:49;100068.56;;;11.99;93.19
7200;BME280;3641;49.082;8.200;2023-05-12T04:33:16;100064.59;;;12.02;93.00
7200;BME280;3641;49.082;8.200;2023-05-12T04:35:43;100068.16;;;12.02;94.24
7200;BME280;3641;49.082;8.200;2023-05-12T04:38:10;100071.13;;;11.79;97.66
7200;BME280;3641;49.082;8.200;2023-05-12T04:40:37;100067.22;;;11.60;99.46
7200;BME280;3641;49.082;8.200;2023-05-12T04:43:03;100072.19;;;11.50;100.00
7200;BME280;3641;49.082;8.200;2023-05-12T04:45:30;100076.31;;;11.67;97.39
7200;BME280;3641;49.082;8.200;2023-05-12T04:47:56;100074.88;;;11.43;100.00
7200;BME280;3641;49.082;8.200;2023-05-12T04:50:23;100075.13;;;11.76;94.98
7200;BME280;3641;49.082;8.200;2023-05-12T04:52:50;100086.34;;;11.88;95.80
7200;BME280;3641;49.082;8.200;2023-05-12T04:55:17;100081.00;;;12.02;92.30
7200;BME280;3641;49.082;8.200;2023-05-12T04:57:44;100074.50;;;12.09;92.38
7200;BME280;3641;49.082;8.200;2023-05-12T05:00:11;100077.47;;;12.08;92.63
7200;BME280;3641;49.082;8.200;2023-05-12T05:02:37;100080.28;;;11.93;93.86
7200;BME280;3641;49.082;8.200;2023-05-12T05:05:05;100084.16;;;12.05;91.97
7200;BME280;3641;49.082;8.200;2023-05-12T05:07:32;100089.88;;;12.10;90.94
7200;BME280;3641;49.082;8.200;2023-05-12T05:10:00;100089.81;;;11.75;99.11
7200;BME280;3641;49.082;8.200;2023-05-12T05:12:26;100093.25;;;11.84;97.14
7200;BME280;3641;49.082;8.200;2023-05-12T05:14:53;100083.25;;;11.98;93.90
7200;BME280;3641;49.082;8.200;2023-05-12T05:17:19;100087.50;;;12.01;94.43
7200;BME280;3641;49.082;8.200;2023-05-12T05:19:46;100088.44;;;11.86;98.09
7200;BME280;3641;49.082;8.200;2023-05-12T05:22:13;100089.94;;;11.89;96.81
7200;BME280;3641;49.082;8.200;2023-05-12T05:24:40;100096.50;;;11.94;97.37
7200;BME280;3641;49.082;8.200;2023-05-12T05:27:08;100095.66;;;11.94;96.70
7200;BME280;3641;49.082;8.200;2023-05-12T05:29:34;100100.94;;;11.95;95.88
7200;BME280;3641;49.082;8.200;2023-05-12T05:32:01;100099.25;;;11.94;98.68
7200;BME280;3641;49.082;8.200;2023-05-12T05:34:28;100094.66;;;12.02;94.84
7200;BME280;3641;49.082;8.200;2023-05-12T05:36:54;100099.09;;;12.09;95.17
7200;BME280;3641;49.082;8.200;2023-05-12T05:39:21;100098.50;;;12.14;93.71
7200;BME280;3641;49.082;8.200;2023-05-12T05:41:47;100102.22;;;11.99;98.21
7200;BME280;3641;49.082;8.200;2023-05-12T05:44:15;100111.88;;;11.95;98.45
7200;BME280;3641;49.082;8.200;2023-05-12T05:46:42;100104.16;;;12.06;95.43
7200;BME280;3641;49.082;8.200;2023-05-12T05:49:08;100105.72;;;12.22;94.93
7200;BME280;3641;49.082;8.200;2023-05-12T05:51:34;100101.94;;;12.23;95.04
7200;BME280;3641;49.082;8.200;2023-05-12T05:54:01;100100.34;;;12.00;99.46
7200;BME280;3641;49.082;8.200;2023-05-12T05:56:27;100106.13;;;12.18;94.91
7200;BME280;3641;49.082;8.200;2023-05-12T05:58:54;100102.16;;;12.28;93.99
7200;BME280;3641;49.082;8.200;2023-05-12T06:01:22;100101.09;;;12.22;95.52
7200;BME280;3641;49.082;8.200;2023-05-12T06:03:48;100106.59;;;12.29;96.31
7200;BME280;3641;49.082;8.200;2023-05-12T06:06:15;100110.78;;;12.25;97.11
7200;BME280;3641;49.082;8.200;2023-05-12T06:08:42;100116.50;;;12.30;97.74
7200;BME280;3641;49.082;8.200;2023-05-12T06:11:08;100120.94;;;12.31;96.37
7200;BME280;3641;49.082;8.200;2023-05-12T06:13:36;100123.00;;;12.22;99.34
7200;BME280;3641;49.082;8.200;2023-05-12T06:16:02;100132.25;;;12.21;99.50
7200;BME280;3641;49.082;8.200;2023-05-12T06:18:31;100127.91;;;12.33;97.70
7200;BME280;3641;49.082;8.200;2023-05-12T06:21:01;100130.09;;;12.16;100.00
7200;BME280;3641;49.082;8.200;2023-05-12T06:23:28;100130.75;;;12.18;97.37
7200;BME280;3641;49.082;8.200;2023-05-12T06:25:54;100130.03;;;12.03;100.00
7200;BME280;3641;49.082;8.200;2023-05-12T06:28:21;100126.75;;;12.14;98.62
7200;BME280;3641;49.082;8.200;2023-05-12T06:30:47;100126.38;;;12.24;98.56
7200;BME280;3641;49.082;8.200;2023-05-12T06:33:14;100130.22;;;12.02;100.00
7200;BME280;3641;49.082;8.200;2023-05-12T06:35:41;100133.81;;;12.02;100.00
7200;BME280;3641;49.082;8.200;2023-05-12T06:38:08;100135.94;;;12.07;100.00
7200;BME280;3641;49.082;8.200;2023-05-12T06:40:34;100136.00;;;12.20;98.58
7200;BME280;3641;49.082;8.200;2023-05-12T06:43:01;100137.28;;;12.17;99.26
7200;BME280;3641;49.082;8.200;2023-05-12T06:45:27;100140.41;;;12.14;100.00
7200;BME280;3641;49.082;8.200;2023-05-12T06:47:54;100133.81;;;12.37;96.25
7200;BME280;3641;49.082;8.200;2023-05-12T06:50:21;100137.13;;;12.26;99.37
7200;BME280;3641;49.082;8.200;2023-05-12T06:52:49;100141.06;;;12.16;100.00
7200;BME280;3641;49.082;8.200;2023-05-12T06:55:16;100147.41;;;12.24;100.00
7200;BME280;3641;49.082;8.200;2023-05-12T06:57:44;100147.13;;;12.47;98.66
7200;BME280;3641;49.082;8.200;2023-05-12T07:00:11;100142.19;;;12.29;100.00
7200;BME280;3641;49.082;8.200;2023-05-12T07:02:38;100144.81;;;12.50;96.26
7200;BME280;3641;49.082;8.200;2023-05-12T07:05:05;100141.94;;;12.65;94.60
7200;BME280;3641;49.082;8.200;2023-05-12T07:07:31;100145.59;;;12.38;99.71
7200;BME280;3641;49.082;8.200;2023-05-12T07:10:01;100149.25;;;12.51;97.39
7200;BME280;3641;49.082;8.200;2023-05-12T07:12:27;100147.69;;;12.35;99.33
7200;BME280;3641;49.082;8.200;2023-05-12T07:14:53;100142.56;;;12.61;96.18
7200;BME280;3641;49.082;8.200;2023-05-12T07:17:20;100150.38;;;12.64;97.82
7200;BME280;3641;49.082;8.200;2023-05-12T07:19:46;100142.19;;;12.70;95.76
7200;BME280;3641;49.082;8.200;2023-05-12T07:22:13;100145.16;;;12.76;96.37
7200;BME280;3641;49.082;8.200;2023-05-12T07:24:39;100145.16;;;12.82;94.72
7200;BME280;3641;49.082;8.200;2023-05-12T07:27:08;100138.88;;;12.88;93.56
7200;BME280;3641;49.082;8.200;2023-05-12T07:29:34;100147.31;;;12.94;93.58
7200;BME280;3641;49.082;8.200;2023-05-12T07:32:01;100144.59;;;13.00;92.49
7200;BME280;3641;49.082;8.200;2023-05-12T07:34:27;100139.75;;;12.96;93.89
7200;BME280;3641;49.082;8.200;2023-05-12T07:36:54;100143.75;;;13.06;92.47
7200;BME280;3641;49.082;8.200;2023-05-12T07:39:20;100137.22;;;13.01;95.46
7200;BME280;3641;49.082;8.200;2023-05-12T07:41:47;100135.72;;;12.98;95.98
7200;BME280;3641;49.082;8.200;2023-05-12T07:44:15;100136.41;;;13.20;92.32
7200;BME280;3641;49.082;8.200;2023-05-12T07:46:41;100137.66;;;13.11;93.01
7200;BME280;3641;49.082;8.200;2023-05-12T07:49:08;100143.56;;;13.08;94.10
7200;BME280;3641;49.082;8.200;2023-05-12T07:51:35;100138.53;;;13.18;92.89
7200;BME280;3641;49.082;8.200;2023-05-12T07:54:01;100138.06;;;13.08;94.55
7200;BME280;3641;49.082;8.200;2023-05-12T07:56:28;100143.38;;;13.16;93.18
7200;BME280;3641;49.082;8.200;2023-05-12T07:58:55;100137.25;;;13.21;93.86
7200;BME280;3641;49.082;8.200;2023-05-12T08:01:23;100138.53;;;13.12;94.35
7200;BME280;3641;49.082;8.200;2023-05-12T08:03:49;100148.00;;;13.09;94.47
7200;BME280;3641;49.082;8.200;2023-05-12T08:06:16;100153.66;;;13.01;94.30
7200;BME280;3641;49.082;8.200;2023-05-12T08:08:42;100139.56;;;13.17;93.63
7200;BME280;3641;49.082;8.200;2023-05-12T08:11:09;100142.50;;;13.09;94.73
7200;BME280;3641;49.082;8.200;2023-05-12T08:13:35;100142.28;;;13.04;95.37
7200;BME280;3641;49.082;8.200;2023-05-12T08:16:02;100149.47;;;13.12;95.46
7200;BME280;3641;49.082;8.200;2023-05-12T08:18:30;100144.84;;;13.12;94.60
7200;BME280;3641;49.082;8.200;2023-05-12T08:20:57;100143.75;;;13.06;94.82
7200;BME280;3641;49.082;8.200;2023-05-12T08:23:23;100145.03;;;13.04;94.32
7200;BME280;3641;49.082;8.200;2023-05-12T08:25:50;100145.03;;;13.04;95.07
7200;BME280;3641;49.082;8.200;2023-05-12T08:28:16;100145.44;;;12.94;95.77
7200;BME280;3641;49.082;8.200;2023-05-12T08:30:43;100145.44;;;12.94;95.29
7200;BME280;3641;49.082;8.200;2023-05-12T08:33:09;100144.63;;;13.20;93.02
7200;BME280;3641;49.082;8.200;2023-05-12T08:35:37;100149.28;;;13.20;92.34
7200;BME280;3641;49.082;8.200;2023-05-12T08:38:04;100144.94;;;13.39;91.72
7200;BME280;3641;49.082;8.200;2023-05-12T08:40:33;100142.94;;;13.13;92.12
7200;BME280;3641;49.082;8.200;2023-05-12T08:43:06;100151.03;;;13.41;90.98
7200;BME280;3641;49.082;8.200;2023-05-12T08:45:36;100155.91;;;13.46;90.22
7200;BME280;3641;49.082;8.200;2023-05-12T08:48:04;100154.56;;;13.28;91.05
7200;BME280;3641;49.082;8.200;2023-05-12T08:50:34;100155.91;;;13.39;90.81
7200;BME280;3641;49.082;8.200;2023-05-12T08:53:03;100154.19;;;13.38;91.31
7200;BME280;3641;49.082;8.200;2023-05-12T08:55:30;100160.31;;;13.33;91.20
7200;BME280;3641;49.082;8.200;2023-05-12T08:57:57;100157.34;;;13.41;90.79
7200;BME280;3641;49.082;8.200;2023-05-12T09:00:25;100163.03;;;13.40;90.26
7200;BME280;3641;49.082;8.200;2023-05-12T09:02:54;100165.63;;;13.61;89.41
7200;BME280;3641;49.082;8.200;2023-05-12T09:05:21;100159.28;;;13.61;88.77
7200;BME280;3641;49.082;8.200;2023-05-12T09:07:48;100159.69;;;13.38;89.67
7200;BME280;3641;49.082;8.200;2023-05-12T09:10:18;100155.91;;;13.59;89.53
7200;BME280;3641;49.082;8.200;2023-05-12T09:12:46;100158.00;;;13.57;89.66
7200;BME280;3641;49.082;8.200;2023-05-12T09:15:19;100167.91;;;13.51;91.63
7200;BME280;3641;49.082;8.200;2023-05-12T09:17:48;100161.38;;;13.52;91.67
7200;BME280;3641;49.082;8.200;2023-05-12T09:20:15;100159.47;;;13.46;92.51
7200;BME280;3641;49.082;8.200;2023-05-12T09:22:42;100163.28;;;13.52;91.37
7200;BME280;3641;49.082;8.200;2023-05-12T09:25:17;100152.53;;;13.57;91.38
7200;BME280;3641;49.082;8.200;2023-05-12T09:27:46;100163.03;;;13.33;92.09
7200;BME280;3641;49.082;8.200;2023-05-12T09:30:13;100157.34;;;13.41;91.56
7200;BME280;3641;49.082;8.200;2023-05-12T09:32:39;100165.81;;;13.47;91.08
7200;BME280;3641;49.082;8.200;2023-05-12T09:35:07;100156.56;;;13.61;90.33
7200;BME280;3641;49.082;8.200;2023-05-12T09:37:36;100162.25;;;13.73;90.33
7200;BME280;3641;49.082;8.200;2023-05-12T09:40:04;100160.97;;;13.82;89.85
7200;BME280;3641;49.082;8.200;2023-05-12T09:42:34;100163.09;;;13.93;89.14
7200;BME280;3641;49.082;8.200;2023-05-12T09:45:01;100155.28;;;13.84;89.90
7200;BME280;3641;49.082;8.200;2023-05-12T09:47:33;100159.72;;;13.98;88.58
7200;BME280;3641;49.082;8.200;2023-05-12T09:50:00;100162.22;;;14.06;88.39
7200;BME280;3641;49.082;8.200;2023-05-12T09:52:28;100155.69;;;14.01;88.26
7200;BME280;3641;49.082;8.200;2023-05-12T09:54:54;100158.66;;;13.79;87.48
7200;BME280;3641;49.082;8.200;2023-05-12T09:57:22;100152.72;;;14.02;88.15
7200;BME280;3641;49.082;8.200;2023-05-12T09:59:52;100158.19;;;14.22;87.49
7200;BME280;3641;49.082;8.200;2023-05-12T10:02:19;100158.63;;;14.12;84.73
7200;BME280;3641;49.082;8.200;2023-05-12T10:04:48;100154.66;;;13.95;85.37
7200;BME280;3641;49.082;8.200;2023-05-12T10:07:15;100159.06;;;14.09;86.52
7200;BME280;3641;49.082;8.200;2023-05-12T10:09:44;100150.81;;;14.16;86.81
7200;BME280;3641;49.082;8.200;2023-05-12T10:12:12;100155.69;;;14.14;85.66
7200;BME280;3641;49.082;8.200;2023-05-12T10:14:39;100149.09;;;14.15;85.56
7200;BME280;3641;49.082;8.200;2023-05-12T10:17:08;100144.88;;;14.26;83.41
7200;BME280;3641;49.082;8.200;2023-05-12T10:19:36;100139.13;;;14.41;84.93
7200;BME280;3641;49.082;8.200;2023-05-12T10:22:08;100148.59;;;14.51;83.83
7200;BME280;3641;49.082;8.200;2023-05-12T10:24:36;100147.78;;;14.51;84.00
7200;BME280;3641;49.082;8.200;2023-05-12T10:27:04;100147.97;;;14.56;83.69
7200;BME280;3641;49.082;8.200;2023-05-12T10:29:30;100150.31;;;14.52;84.21
7200;BME280;3641;49.082;8.200;2023-05-12T10:31:58;100143.28;;;14.57;85.47
7200;BME280;3641;49.082;8.200;2023-05-12T10:34:31;100146.28;;;14.55;83.59
7200;BME280;3641;49.082;8.200;2023-05-12T10:36:59;100149.00;;;14.68;85.07
7200;BME280;3641;49.082;8.200;2023-05-12T10:39:27;100148.56;;;14.58;83.38
7200;BME280;3641;49.082;8.200;2023-05-12T10:42:00;100152.47;;;14.30;83.96
7200;BME280;3641;49.082;8.200;2023-05-12T10:44:27;100151.84;;;14.28;84.90
7200;BME280;3641;49.082;8.200;2023-05-12T10:46:55;100149.16;;;14.02;85.92
7200;BME280;3641;49.082;8.200;2023-05-12T10:49:31;100149.34;;;14.00;87.27
7200;BME280;3641;49.082;8.200;2023-05-12T10:51:59;100149.34;;;14.00;87.75
7200;BME280;3641;49.082;8.200;2023-05-12T10:54:26;100148.75;;;13.91;88.62
7200;BME280;3641;49.082;8.200;2023-05-12T10:56:57;100153.56;;;13.89;88.20
7200;BME280;3641;49.082;8.200;2023-05-12T10:59:25;100154.22;;;14.05;88.30
7200;BME280;3641;49.082;8.200;2023-05-12T11:01:56;100146.59;;;14.00;88.17
7200;BME280;3641;49.082;8.200;2023-05-12T11:04:35;100150.38;;;14.19;87.27
7200;BME280;3641;49.082;8.200;2023-05-12T11:07:05;100152.69;;;14.22;86.59
7200;BME280;3641;49.082;8.200;2023-05-12T11:09:34;100145.50;;;14.34;86.04
7200;BME280;3641;49.082;8.200;2023-05-12T11:12:00;100158.81;;;14.24;85.53
7200;BME280;3641;49.082;8.200;2023-05-12T11:14:27;100148.25;;;14.34;84.75
7200;BME280;3641;49.082;8.200;2023-05-12T11:16:54;100155.41;;;14.35;84.76
7200;BME280;3641;49.082;8.200;2023-05-12T11:19:20;100148.22;;;14.41;84.55
7200;BME280;3641;49.082;8.200;2023-05-12T11:21:48;100151.63;;;14.37;82.91
7200;BME280;3641;49.082;8.200;2023-05-12T11:24:14;100157.53;;;14.33;84.03
7200;BME280;3641;49.082;8.200;2023-05-12T11:26:41;100157.28;;;14.42;85.02
7200;BME280;3641;49.082;8.200;2023-05-12T11:29:08;100163.19;;;14.52;85.41
7200;BME280;3641;49.082;8.200;2023-05-12T11:31:35;100148.59;;;14.51;84.54
7200;BME280;3641;49.082;8.200;2023-05-12T11:34:03;100153.25;;;14.51;84.06
7200;BME280;3641;49.082;8.200;2023-05-12T11:36:35;100151.31;;;14.58;83.99
7200;BME280;3641;49.082;8.200;2023-05-12T11:39:03;100156.41;;;14.68;84.38
7200;BME280;3641;49.082;8.200;2023-05-12T11:41:30;100158.94;;;14.69;84.41
7200;BME280;3641;49.082;8.200;2023-05-12T11:43:57;100154.91;;;14.72;82.22
7200;BME280;3641;49.082;8.200;2023-05-12T11:46:24;100154.00;;;14.85;80.58
7200;BME280;3641;49.082;8.200;2023-05-12T11:49:09;100162.06;;;14.80;79.50
7200;BME280;3641;49.082;8.200;2023-05-12T11:51:40;100156.09;;;14.89;80.05
7200;BME280;3641;49.082;8.200;2023-05-12T11:54:08;100162.38;;;15.03;78.99
7200;BME280;3641;49.082;8.200;2023-05-12T11:56:34;100165.28;;;15.15;79.60
7200;BME280;3641;49.082;8.200;2023-05-12T11:59:01;100154.50;;;15.14;78.48
7200;BME280;3641;49.082;8.200;2023-05-12T12:01:28;100158.88;;;15.21;80.53
7200;BME280;3641;49.082;8.200;2023-05-12T12:03:54;100162.31;;;15.17;79.71
7200;BME280;3641;49.082;8.200;2023-05-12T12:06:21;100169.72;;;15.16;80.76
7200;BME280;3641;49.082;8.200;2023-05-12T12:08:49;100173.31;;;15.17;82.05
7200;BME280;3641;49.082;8.200;2023-05-12T12:11:17;100173.31;;;15.17;79.68
7200;BME280;3641;49.082;8.200;2023-05-12T12:13:49;100170.28;;;15.32;80.13
7200;BME280;3641;49.082;8.200;2023-05-12T12:16:21;100161.59;;;15.28;79.88
7200;BME280;3641;49.082;8.200;2023-05-12T12:18:47;100167.69;;;15.37;81.10
7200;BME280;3641;49.082;8.200;2023-05-12T12:21:14;100171.09;;;15.32;79.94
7200;BME280;3641;49.082;8.200;2023-05-12T12:23:40;100171.66;;;15.41;79.82
7200;BME280;3641;49.082;8.200;2023-05-12T12:26:07;100178.44;;;15.45;80.34
7200;BME280;3641;49.082;8.200;2023-05-12T12:28:34;100176.16;;;15.35;80.00
7200;BME280;3641;49.082;8.200;2023-05-12T12:31:01;100177.53;;;15.19;81.74
7200;BME280;3641;49.082;8.200;2023-05-12T12:33:28;100173.16;;;15.05;84.30
7200;BME280;3641;49.082;8.200;2023-05-12T12:35:54;100178.31;;;14.88;86.02
7200;BME280;3641;49.082;8.200;2023-05-12T12:38:21;100183.13;;;14.99;87.76
7200;BME280;3641;49.082;8.200;2023-05-12T12:40:47;100184.38;;;15.03;88.50
7200;BME280;3641;49.082;8.200;2023-05-12T12:43:13;100175.13;;;14.91;88.94
7200;BME280;3641;49.082;8.200;2023-05-12T12:45:41;100189.47;;;14.93;87.77
7200;BME280;3641;49.082;8.200;2023-05-12T12:48:08;100180.72;;;15.16;86.18
7200;BME280;3641;49.082;8.200;2023-05-12T12:50:34;100182.56;;;14.84;87.01
7200;BME280;3641;49.082;8.200;2023-05-12T12:53:01;100189.34;;;14.75;86.83
7200;BME280;3641;49.082;8.200;2023-05-12T12:55:28;100187.72;;;14.53;87.73
7200;BME280;3641;49.082;8.200;2023-05-12T12:57:55;100182.63;;;14.44;88.65
7200;BME280;3641;49.082;8.200;2023-05-12T13:00:22;100190.25;;;14.62;87.85
7200;BME280;3641;49.082;8.200;2023-05-12T13:02:50;100176.09;;;14.65;88.04
7200;BME280;3641;49.082;8.200;2023-05-12T13:05:16;100182.84;;;14.62;86.23
7200;BME280;3641;49.082;8.200;2023-05-12T13:07:43;100183.91;;;14.68;86.05
7200;BME280;3641;49.082;8.200;2023-05-12T13:10:10;100174.50;;;14.89;86.64